KMLJ/MLJ METAR and TAF weather

Enter ICAO airport designator
Station Type Date Time Source
KMLJ METAR 2022/01/07 15:00 UTC NOAA

KMLJ 071500Z AUTO 26007KT 10SM CLR 03/M02 A3029 RMK AO2


Station Type Date Time Source
KMLJ Decoded METAR 2022/01/07 15:00 UTC NOAA

Milledgeville, Baldwin County Airport, GA, United States (KMLJ) 33-09-15N 083-14-26W
Jan 07, 2022 - 10:00 AM EST / 2022.01.07 1500 UTC
Wind: from the W (260 degrees) at 8 MPH (7 KT):0
Visibility: 10 mile(s):0
Sky conditions: clear
Temperature: 37 F (3 C)
Dew Point: 28 F (-2 C)
Relative Humidity: 69%
Pressure (altimeter): 30.29 in. Hg (1025 hPa)
ob: KMLJ 071500Z AUTO 26007KT 10SM CLR 03/M02 A3029 RMK AO2
cycle: 15

Station Type Date Time Source
KMLJ TAF UTC NOAA

Error!

Example: see airport list